Time;durP1;ratioP1;P1;durP2;ratioP2;P2;SDS_P1;SDS_P2;PMS_P1;PMS_P2;Temp;Humidity;BMP_temperature;BMP_pressure;BME280_temperature;BME280_humidity;BME280_pressure;Samples;Min_cycle;Max_cycle;Signal;HPM_P1;HPM_P2
2022/01/24 00:00:14;;;;;;;9.23;4.45;;;5.40;99.90;;;;;;4960201;29;20051;-83
2022/01/24 00:02:42;;;;;;;8.85;4.95;;;5.40;99.90;;;;;;4959585;29;20047;-82
2022/01/24 00:05:08;;;;;;;10.50;5.05;;;5.40;99.90;;;;;;4959475;29;20398;-83
2022/01/24 00:07:34;;;;;;;12.32;5.68;;;5.40;99.90;;;;;;4959704;29;20047;-84
2022/01/24 00:10:04;;;;;;;11.93;6.03;;;5.40;99.90;;;;;;4959599;29;20394;-83
2022/01/24 00:18:14;;;;;;;11.55;5.85;;;5.40;99.90;;;;;;4952121;29;20051;-83
2022/01/24 00:28:52;;;;;;;14.00;6.78;;;5.40;99.90;;;;;;4963596;29;20573;-83
2022/01/24 00:31:18;;;;;;;11.52;5.60;;;5.40;99.90;;;;;;4961447;29;20079;-83
2022/01/24 00:33:43;;;;;;;15.07;7.47;;;5.30;99.90;;;;;;4966460;29;20078;-84
2022/01/24 00:36:09;;;;;;;13.82;7.55;;;5.30;99.90;;;;;;4963765;29;20039;-83
2022/01/24 00:38:34;;;;;;;17.48;8.27;;;5.40;99.90;;;;;;4965641;29;20051;-83
2022/01/24 00:41:00;;;;;;;15.27;7.30;;;5.40;99.90;;;;;;4962315;29;20043;-83
2022/01/24 00:43:41;;;;;;;15.15;8.05;;;5.40;99.90;;;;;;4962966;29;20069;-83
2022/01/24 00:46:18;;;;;;;15.90;8.43;;;5.40;99.90;;;;;;4962130;29;20437;-83
2022/01/24 00:49:17;;;;;;;16.10;7.65;;;5.40;99.90;;;;;;4963060;29;20043;-83
2022/01/24 00:57:03;;;;;;;16.98;7.88;;;5.40;99.90;;;;;;4962761;29;20051;-83
2022/01/24 00:59:29;;;;;;;16.95;8.18;;;5.30;99.90;;;;;;4961973;29;20043;-83
2022/01/24 01:01:56;;;;;;;15.70;7.95;;;5.30;99.90;;;;;;4962395;29;20098;-83
2022/01/24 01:04:27;;;;;;;15.88;7.05;;;5.30;99.90;;;;;;4962773;29;20106;-83
2022/01/24 01:06:54;;;;;;;16.77;8.17;;;5.30;99.90;;;;;;4962080;29;20075;-83
2022/01/24 01:20:27;;;;;;;17.45;7.95;;;5.30;99.90;;;;;;4962734;29;20092;-82
2022/01/24 01:22:52;;;;;;;16.38;8.23;;;5.30;99.90;;;;;;4962209;29;20043;-83
2022/01/24 01:25:18;;;;;;;16.30;8.35;;;5.30;99.90;;;;;;4961171;29;20097;-83
2022/01/24 01:27:46;;;;;;;16.27;8.95;;;5.30;99.90;;;;;;4962146;29;20043;-84
2022/01/24 01:30:20;;;;;;;18.63;8.50;;;5.30;99.90;;;;;;4961179;28;20075;-83
2022/01/24 01:56:40;;;;;;;21.70;10.50;;;5.30;99.90;;;;;;4961450;29;20122;-83
2022/01/24 01:59:06;;;;;;;21.55;9.77;;;5.30;99.90;;;;;;4955099;29;20398;-83
2022/01/24 02:01:31;;;;;;;18.65;9.52;;;5.30;99.90;;;;;;4954700;29;20047;-84
2022/01/24 02:03:57;;;;;;;18.30;9.35;;;5.30;99.90;;;;;;4938716;29;20035;-83
2022/01/24 02:06:24;;;;;;;20.52;10.18;;;5.30;99.90;;;;;;4954350;29;20043;-83
2022/01/24 02:08:58;;;;;;;21.85;10.02;;;5.30;99.90;;;;;;4954613;29;20047;-83
2022/01/24 02:11:24;;;;;;;19.35;9.77;;;5.30;99.90;;;;;;4954817;29;20481;-83
2022/01/24 02:13:49;;;;;;;17.83;9.05;;;5.30;99.90;;;;;;4954576;29;20074;-83
2022/01/24 02:16:31;;;;;;;17.30;9.85;;;5.30;99.90;;;;;;4954326;29;20036;-83
2022/01/24 02:19:13;;;;;;;20.70;9.33;;;5.30;99.90;;;;;;4954573;29;20090;-83
2022/01/24 02:21:47;;;;;;;21.60;9.32;;;5.30;99.90;;;;;;4954550;29;20094;-84
2022/01/24 02:24:15;;;;;;;18.30;9.52;;;5.30;99.90;;;;;;4954731;29;20407;-83
2022/01/24 02:26:41;;;;;;;19.50;10.80;;;5.30;99.90;;;;;;4958808;29;20039;-83
2022/01/24 02:29:45;;;;;;;19.45;9.82;;;5.20;99.90;;;;;;4960415;29;20057;-83
2022/01/24 02:31:55;;;;;;;18.00;9.90;;;5.30;99.90;;;;;;4960982;29;20118;-83
2022/01/24 02:34:35;;;;;;;19.08;9.98;;;5.20;99.90;;;;;;4960130;29;20038;-83
2022/01/24 02:37:05;;;;;;;18.92;9.63;;;5.30;99.90;;;;;;4961213;29;20035;-83
2022/01/24 02:39:46;;;;;;;16.50;9.05;;;5.20;99.90;;;;;;4959787;29;20050;-83
2022/01/24 02:53:14;;;;;;;17.50;7.75;;;5.20;99.90;;;;;;4960107;29;20456;-83
2022/01/24 02:55:40;;;;;;;15.68;7.55;;;5.20;99.90;;;;;;4959250;29;20066;-80
2022/01/24 02:58:06;;;;;;;17.08;8.85;;;5.20;99.90;;;;;;4955153;29;20086;-80
2022/01/24 03:00:32;;;;;;;19.55;8.20;;;5.20;99.90;;;;;;4955216;29;20083;-80
2022/01/24 03:02:58;;;;;;;15.95;8.07;;;5.20;99.90;;;;;;4955020;29;20074;-80
2022/01/24 03:05:24;;;;;;;16.85;8.40;;;5.20;99.90;;;;;;4954543;29;20414;-80
2022/01/24 03:07:49;;;;;;;15.02;7.80;;;5.20;99.90;;;;;;4954891;29;20068;-80
2022/01/24 03:10:25;;;;;;;14.63;7.72;;;5.20;99.90;;;;;;4954692;29;20054;-80
2022/01/24 03:15:51;;;;;;;12.68;6.82;;;5.20;99.90;;;;;;4944762;29;20047;-80
2022/01/24 03:18:18;;;;;;;13.85;6.97;;;5.20;99.90;;;;;;4954917;29;20102;-80
2022/01/24 03:20:44;;;;;;;12.25;6.90;;;5.20;99.90;;;;;;4954328;29;20514;-80
2022/01/24 03:23:10;;;;;;;13.73;7.07;;;5.20;99.90;;;;;;4954161;29;20047;-80
2022/01/24 03:25:36;;;;;;;16.67;8.30;;;5.20;99.90;;;;;;4953937;29;20047;-80
2022/01/24 03:28:04;;;;;;;13.52;6.40;;;5.20;99.90;;;;;;4953804;29;20051;-79
2022/01/24 03:30:30;;;;;;;12.85;6.80;;;5.20;99.90;;;;;;4952931;29;20094;-79
2022/01/24 03:32:56;;;;;;;13.45;6.78;;;5.20;99.90;;;;;;4953065;29;20043;-79
2022/01/24 03:35:21;;;;;;;13.18;6.28;;;5.20;99.90;;;;;;4952753;29;20036;-78
2022/01/24 03:37:47;;;;;;;12.20;7.25;;;5.20;99.90;;;;;;4952896;29;20058;-79
2022/01/24 03:40:13;;;;;;;13.10;6.50;;;5.20;99.90;;;;;;4952855;29;20418;-79
2022/01/24 03:42:38;;;;;;;12.43;7.13;;;5.20;99.90;;;;;;4952903;29;20056;-79
2022/01/24 03:45:07;;;;;;;12.15;7.28;;;5.20;99.90;;;;;;4952904;29;20047;-79
2022/01/24 03:50:00;;;;;;;13.98;7.63;;;5.20;99.90;;;;;;4952583;29;20054;-79
2022/01/24 03:52:26;;;;;;;15.48;7.13;;;5.20;99.90;;;;;;4953050;28;20093;-79
2022/01/24 03:54:52;;;;;;;14.73;7.55;;;5.20;99.90;;;;;;4952964;29;20121;-78
2022/01/24 03:57:19;;;;;;;13.60;7.40;;;5.10;99.90;;;;;;4952587;29;20051;-79
2022/01/24 03:59:45;;;;;;;13.15;7.00;;;5.10;99.90;;;;;;4952500;29;20051;-78
2022/01/24 04:02:12;;;;;;;19.15;9.63;;;5.20;99.90;;;;;;4952926;29;20043;-79
2022/01/24 04:04:38;;;;;;;17.38;8.73;;;5.20;99.90;;;;;;4952679;29;20074;-79
2022/01/24 04:07:04;;;;;;;17.80;8.63;;;5.20;99.90;;;;;;4952456;29;20125;-79
2022/01/24 04:09:30;;;;;;;19.13;9.30;;;5.20;99.90;;;;;;4952478;29;20084;-79
2022/01/24 04:11:57;;;;;;;17.55;8.70;;;5.20;99.90;;;;;;4952625;29;20129;-79
2022/01/24 04:14:38;;;;;;;18.67;9.35;;;5.20;99.90;;;;;;4952813;29;20070;-79
2022/01/24 04:22:13;;;;;;;20.45;9.25;;;5.20;99.90;;;;;;4952862;29;20490;-79
2022/01/24 04:24:39;;;;;;;17.85;9.40;;;5.20;99.90;;;;;;4952618;29;20043;-79
2022/01/24 04:27:06;;;;;;;16.55;9.05;;;5.20;99.90;;;;;;4952293;29;20051;-79
2022/01/24 04:29:32;;;;;;;19.75;10.27;;;5.20;99.90;;;;;;4952508;29;20506;-79
2022/01/24 04:31:58;;;;;;;19.55;10.25;;;5.20;99.90;;;;;;4952607;29;20066;-79
2022/01/24 04:34:23;;;;;;;20.00;9.45;;;5.20;99.90;;;;;;4952331;29;20498;-79
2022/01/24 04:36:49;;;;;;;18.50;9.40;;;5.20;99.90;;;;;;4952198;29;20035;-79
2022/01/24 04:39:15;;;;;;;22.25;10.35;;;5.20;99.90;;;;;;4952462;29;20047;-79
2022/01/24 04:41:45;;;;;;;21.38;10.75;;;5.20;99.90;;;;;;4952389;29;20122;-79
2022/01/24 04:44:30;;;;;;;21.20;10.65;;;5.10;99.90;;;;;;4952686;29;20040;-79
2022/01/24 04:54:55;;;;;;;20.50;10.53;;;5.20;99.90;;;;;;4952561;29;20047;-79
2022/01/24 04:57:24;;;;;;;24.48;11.70;;;5.20;99.90;;;;;;4953220;29;20040;-80
2022/01/24 04:59:51;;;;;;;24.08;11.65;;;5.10;99.90;;;;;;4953514;29;20082;-80
2022/01/24 05:02:19;;;;;;;22.92;11.32;;;5.10;99.90;;;;;;4953541;29;20058;-80
2022/01/24 05:04:46;;;;;;;25.00;11.30;;;5.10;99.90;;;;;;4955493;28;20070;-80
2022/01/24 05:07:12;;;;;;;22.50;10.50;;;5.10;99.90;;;;;;4956901;29;20051;-80
2022/01/24 05:21:31;;;;;;;20.42;10.25;;;5.00;99.90;;;;;;4956579;29;20133;-80
2022/01/24 05:23:32;;;;;;;26.25;11.88;;;5.00;99.90;;;;;;4956957;29;20069;-80
2022/01/24 05:26:00;;;;;;;32.53;13.73;;;5.00;99.90;;;;;;4956663;29;20054;-80
2022/01/24 05:28:26;;;;;;;30.05;14.35;;;5.00;99.90;;;;;;4956613;29;20278;-80
2022/01/24 05:30:52;;;;;;;32.30;14.35;;;5.00;99.90;;;;;;4956274;29;20050;-80
2022/01/24 05:33:18;;;;;;;30.95;13.25;;;4.90;99.90;;;;;;4956611;29;20035;-81
2022/01/24 05:35:43;;;;;;;29.30;12.95;;;5.00;99.90;;;;;;4956608;29;20039;-80
2022/01/24 05:38:12;;;;;;;33.33;14.38;;;5.00;99.90;;;;;;4956555;29;20160;-80
2022/01/24 05:40:38;;;;;;;28.33;14.05;;;5.00;99.90;;;;;;4956318;29;20046;-80
2022/01/24 05:43:07;;;;;;;35.35;15.52;;;5.10;99.90;;;;;;4956309;29;20057;-80
2022/01/24 05:45:33;;;;;;;34.78;15.38;;;5.00;99.90;;;;;;4955798;29;20043;-80
2022/01/24 05:47:59;;;;;;;43.22;18.65;;;5.10;99.90;;;;;;4956298;29;20047;-80
2022/01/24 05:50:24;;;;;;;45.95;18.88;;;5.10;99.90;;;;;;4956034;29;20469;-80
2022/01/24 05:52:50;;;;;;;54.85;23.52;;;5.10;99.90;;;;;;4958606;29;20046;-83
2022/01/24 05:55:16;;;;;;;48.30;22.13;;;5.10;99.90;;;;;;4943595;29;20122;-82
2022/01/24 05:57:42;;;;;;;61.80;24.15;;;5.10;99.90;;;;;;4947727;29;20044;-82
2022/01/24 06:00:11;;;;;;;56.83;23.83;;;5.10;99.90;;;;;;4961697;29;20094;-82
2022/01/24 06:02:41;;;;;;;57.92;24.02;;;5.20;99.90;;;;;;4927454;29;20071;-82
2022/01/24 06:05:10;;;;;;;59.83;23.48;;;5.20;99.90;;;;;;4943136;29;20498;-83
2022/01/24 06:07:36;;;;;;;51.75;22.15;;;5.10;99.90;;;;;;4942136;29;20482;-83
2022/01/24 06:10:03;;;;;;;50.92;22.02;;;5.10;99.90;;;;;;4957375;29;20058;-82
2022/01/24 06:12:33;;;;;;;55.17;21.75;;;5.20;99.90;;;;;;4945118;29;20042;-82
2022/01/24 06:14:59;;;;;;;42.90;20.52;;;5.20;99.90;;;;;;4946975;28;20045;-82
2022/01/24 06:17:25;;;;;;;53.80;21.95;;;5.30;99.90;;;;;;4931239;29;20043;-83
2022/01/24 06:19:51;;;;;;;49.15;23.13;;;5.20;99.90;;;;;;4964221;28;20046;-82
2022/01/24 06:22:17;;;;;;;46.72;20.17;;;5.20;99.90;;;;;;4944061;29;20047;-81
2022/01/24 06:24:45;;;;;;;44.33;19.50;;;5.10;99.90;;;;;;4945377;29;20051;-82
2022/01/24 06:27:11;;;;;;;48.55;20.23;;;5.20;99.90;;;;;;4945682;29;20129;-83
2022/01/24 06:29:40;;;;;;;48.80;21.13;;;5.10;99.90;;;;;;4948259;29;20078;-83
2022/01/24 06:32:07;;;;;;;45.25;19.58;;;5.10;99.90;;;;;;4946912;29;20039;-82
2022/01/24 06:34:33;;;;;;;44.30;18.10;;;5.20;99.90;;;;;;4945809;29;20040;-82
2022/01/24 06:36:58;;;;;;;51.60;21.58;;;5.20;99.90;;;;;;4940997;29;20097;-82
2022/01/24 06:39:24;;;;;;;52.17;20.90;;;5.10;99.90;;;;;;4967037;29;20043;-81
2022/01/24 06:42:08;;;;;;;119.22;51.28;;;5.10;99.90;;;;;;4965977;29;20049;-79
2022/01/24 06:44:40;;;;;;;66.20;27.42;;;5.10;99.90;;;;;;4950011;29;20494;-80
2022/01/24 06:47:06;;;;;;;60.25;24.63;;;5.10;99.90;;;;;;4949245;29;20065;-81
2022/01/24 06:49:31;;;;;;;52.90;23.58;;;5.10;99.90;;;;;;4958377;29;20083;-79
2022/01/24 06:51:58;;;;;;;56.20;23.17;;;5.10;99.90;;;;;;4954365;29;20118;-80
2022/01/24 06:54:24;;;;;;;55.88;23.02;;;5.10;99.90;;;;;;4953796;29;20047;-78
2022/01/24 06:56:49;;;;;;;56.05;23.25;;;5.10;99.90;;;;;;4951802;29;20191;-79
2022/01/24 06:59:15;;;;;;;62.03;26.02;;;5.10;99.90;;;;;;4953150;29;20399;-79
2022/01/24 07:01:40;;;;;;;66.95;27.08;;;5.10;99.90;;;;;;4953848;29;20039;-79
2022/01/24 07:04:06;;;;;;;69.78;27.40;;;5.10;99.90;;;;;;4953935;29;20039;-82
2022/01/24 07:06:31;;;;;;;67.07;26.92;;;5.10;99.90;;;;;;4957061;29;20043;-83
2022/01/24 07:08:57;;;;;;;63.05;25.75;;;5.10;99.90;;;;;;4941603;29;20178;-84
2022/01/24 07:11:22;;;;;;;66.05;26.10;;;5.10;99.90;;;;;;4959183;29;20058;-82
2022/01/24 07:13:49;;;;;;;69.70;27.08;;;5.20;99.90;;;;;;4960173;29;20047;-82
2022/01/24 07:16:16;;;;;;;64.15;27.27;;;5.20;99.90;;;;;;4959450;29;20058;-83
2022/01/24 07:18:58;;;;;;;71.28;28.65;;;5.20;99.90;;;;;;4958769;29;20043;-84
2022/01/24 07:21:24;;;;;;;64.03;26.70;;;5.20;99.90;;;;;;4958849;29;20051;-83
2022/01/24 07:23:49;;;;;;;65.63;26.90;;;5.20;99.90;;;;;;4959114;29;20119;-84
2022/01/24 07:26:15;;;;;;;66.03;27.08;;;5.20;99.90;;;;;;4958576;28;20089;-82
2022/01/24 07:28:41;;;;;;;69.95;27.08;;;5.20;99.90;;;;;;4955166;29;20047;-80
2022/01/24 07:31:06;;;;;;;68.10;28.45;;;5.20;99.90;;;;;;4953900;29;20047;-80
2022/01/24 07:33:32;;;;;;;70.38;27.73;;;5.20;99.90;;;;;;4953744;29;20395;-80
2022/01/24 07:35:58;;;;;;;70.38;28.77;;;5.20;99.90;;;;;;4953627;29;20110;-80
2022/01/24 07:38:24;;;;;;;82.25;30.05;;;5.20;99.90;;;;;;4953850;29;20050;-80
2022/01/24 07:40:53;;;;;;;72.97;30.58;;;5.20;99.90;;;;;;4953532;29;20518;-80
2022/01/24 07:43:19;;;;;;;82.88;32.78;;;5.10;99.90;;;;;;4953197;29;20051;-79
2022/01/24 07:45:46;;;;;;;62.22;27.45;;;5.20;99.90;;;;;;4952523;29;20051;-79
2022/01/24 07:48:13;;;;;;;74.00;30.85;;;5.20;99.90;;;;;;4952859;29;20118;-79
2022/01/24 07:50:42;;;;;;;74.68;29.55;;;5.20;99.90;;;;;;4952942;29;20047;-79
2022/01/24 07:53:09;;;;;;;68.40;27.90;;;5.20;99.90;;;;;;4952749;29;20541;-79
2022/01/24 07:55:35;;;;;;;70.13;29.95;;;5.20;99.90;;;;;;4952741;29;20035;-79
2022/01/24 07:58:01;;;;;;;72.05;29.23;;;5.20;99.90;;;;;;4952609;29;20047;-79
2022/01/24 08:00:27;;;;;;;74.03;28.40;;;5.20;99.90;;;;;;4952418;29;20470;-79
2022/01/24 08:02:53;;;;;;;75.93;30.30;;;5.20;99.90;;;;;;4952664;29;20051;-79
2022/01/24 08:05:19;;;;;;;70.38;29.13;;;5.20;99.90;;;;;;4952443;29;20406;-79
2022/01/24 08:07:44;;;;;;;77.15;29.67;;;5.20;99.90;;;;;;4952856;29;20043;-79
2022/01/24 08:10:10;;;;;;;75.55;29.05;;;5.20;99.90;;;;;;4952577;29;20043;-79
2022/01/24 08:12:38;;;;;;;73.32;30.77;;;5.20;99.90;;;;;;4952539;29;20126;-79
2022/01/24 08:15:04;;;;;;;76.63;29.10;;;5.20;99.90;;;;;;4952540;29;20047;-79
2022/01/24 08:17:30;;;;;;;69.70;28.02;;;5.20;99.90;;;;;;4952787;29;20394;-79
2022/01/24 08:19:56;;;;;;;72.20;29.88;;;5.20;99.90;;;;;;4952614;29;20043;-79
2022/01/24 08:22:23;;;;;;;80.85;30.38;;;5.20;99.90;;;;;;4952489;29;20050;-79
2022/01/24 08:24:50;;;;;;;68.53;30.30;;;5.20;99.90;;;;;;4952425;29;20051;-79
2022/01/24 08:27:18;;;;;;;75.63;28.55;;;5.30;99.90;;;;;;4952152;29;20129;-79
2022/01/24 08:29:45;;;;;;;63.90;26.73;;;5.30;99.90;;;;;;4952218;29;20143;-79
2022/01/24 08:32:11;;;;;;;56.10;27.00;;;5.30;99.90;;;;;;4952383;29;20058;-79
2022/01/24 08:34:38;;;;;;;63.95;26.35;;;5.30;99.90;;;;;;4952517;29;20231;-78
2022/01/24 08:37:04;;;;;;;65.60;27.33;;;5.30;99.90;;;;;;4952369;29;20074;-79
2022/01/24 08:39:30;;;;;;;64.28;26.27;;;5.30;99.90;;;;;;4953901;28;20051;-79
2022/01/24 08:47:07;;;;;;;58.17;25.52;;;5.30;99.90;;;;;;4945420;29;20050;-78
2022/01/24 08:49:33;;;;;;;62.90;26.02;;;5.30;99.90;;;;;;4956082;29;20082;-78
2022/01/24 08:52:00;;;;;;;60.72;25.35;;;5.30;99.90;;;;;;4955855;29;20497;-78
2022/01/24 08:54:25;;;;;;;63.60;27.05;;;5.30;99.90;;;;;;4955812;29;20055;-78
2022/01/24 08:56:51;;;;;;;61.72;25.55;;;5.30;99.90;;;;;;4956779;28;20039;-79
2022/01/24 08:59:17;;;;;;;61.75;25.60;;;5.30;99.90;;;;;;4955596;29;20089;-79
2022/01/24 09:01:43;;;;;;;56.08;24.27;;;5.40;99.90;;;;;;4955699;29;20039;-79
2022/01/24 09:04:09;;;;;;;69.13;25.33;;;5.40;99.90;;;;;;4955696;29;20043;-79
2022/01/24 09:06:35;;;;;;;65.68;27.40;;;5.40;99.90;;;;;;4955372;29;20458;-79
2022/01/24 09:09:04;;;;;;;66.82;27.08;;;5.30;99.90;;;;;;4955408;29;20040;-79
2022/01/24 09:11:34;;;;;;;54.80;25.73;;;5.40;99.90;;;;;;4955479;29;20391;-78
2022/01/24 09:14:02;;;;;;;70.18;27.25;;;5.40;99.90;;;;;;4955488;29;20043;-79
2022/01/24 09:16:27;;;;;;;61.60;25.00;;;5.40;99.90;;;;;;4955484;29;20529;-79
2022/01/24 09:18:54;;;;;;;61.10;25.38;;;5.40;99.90;;;;;;4955366;29;20074;-79
2022/01/24 09:21:22;;;;;;;62.35;26.63;;;5.40;99.90;;;;;;4955229;29;20122;-79
2022/01/24 09:23:48;;;;;;;60.83;24.02;;;5.40;99.90;;;;;;4955261;29;20047;-79
2022/01/24 09:26:14;;;;;;;58.55;24.65;;;5.40;99.90;;;;;;4955061;29;20486;-78
2022/01/24 09:28:40;;;;;;;57.33;25.13;;;5.40;99.90;;;;;;4955474;29;20043;-79
2022/01/24 09:31:05;;;;;;;52.70;24.45;;;5.40;99.90;;;;;;4955018;29;20506;-79
2022/01/24 09:33:32;;;;;;;49.88;23.33;;;5.40;99.90;;;;;;4955412;29;20127;-79
2022/01/24 09:36:00;;;;;;;48.10;21.50;;;5.40;99.90;;;;;;4954886;29;20090;-79
2022/01/24 09:38:29;;;;;;;47.42;21.30;;;5.40;99.90;;;;;;4955004;29;20043;-79
2022/01/24 09:40:55;;;;;;;47.80;20.73;;;5.40;99.90;;;;;;4954857;29;20097;-79
2022/01/24 09:43:21;;;;;;;46.92;22.10;;;5.40;99.90;;;;;;4955221;29;20043;-79
2022/01/24 09:45:47;;;;;;;47.03;19.50;;;5.40;99.90;;;;;;4954694;29;20035;-79
2022/01/24 09:48:14;;;;;;;47.58;21.00;;;5.40;99.90;;;;;;4954939;29;20043;-79
2022/01/24 09:50:39;;;;;;;44.95;21.35;;;5.40;99.90;;;;;;4954596;28;20054;-79
2022/01/24 09:53:05;;;;;;;44.53;20.90;;;5.40;99.90;;;;;;4955189;29;20039;-79
2022/01/24 09:55:31;;;;;;;42.47;20.50;;;5.40;99.90;;;;;;4954823;29;20490;-79
2022/01/24 09:57:56;;;;;;;46.00;19.33;;;5.30;99.90;;;;;;4954944;29;20482;-79
2022/01/24 10:00:24;;;;;;;43.50;20.00;;;5.30;99.90;;;;;;4954865;29;20039;-79
2022/01/24 10:02:51;;;;;;;43.15;20.08;;;5.40;99.90;;;;;;4954553;29;20061;-79
2022/01/24 10:05:19;;;;;;;40.22;18.13;;;5.40;99.90;;;;;;4955649;28;20039;-79
2022/01/24 10:07:55;;;;;;;40.70;19.42;;;5.40;99.90;;;;;;4954524;29;20070;-79
2022/01/24 10:10:35;;;;;;;42.22;19.70;;;5.40;99.90;;;;;;4954217;29;20051;-79
2022/01/24 10:19:04;;;;;;;41.00;18.83;;;5.40;99.90;;;;;;4956528;29;20406;-79
2022/01/24 10:21:36;;;;;;;38.92;18.98;;;5.40;99.90;;;;;;4957575;29;20039;-79
2022/01/24 10:24:01;;;;;;;44.58;20.02;;;5.40;99.90;;;;;;4956568;29;20047;-79
2022/01/24 10:26:27;;;;;;;42.75;19.75;;;5.40;99.90;;;;;;4957212;29;20041;-79
2022/01/24 10:28:52;;;;;;;38.53;18.38;;;5.40;99.90;;;;;;4956343;29;20079;-79
2022/01/24 10:31:29;;;;;;;39.35;17.42;;;5.50;99.90;;;;;;4954910;29;20035;-79
2022/01/24 10:34:17;;;;;;;41.90;19.40;;;5.50;99.90;;;;;;4955385;29;20039;-79
2022/01/24 10:36:57;;;;;;;43.30;19.15;;;5.50;99.90;;;;;;4956085;29;20058;-79
2022/01/24 10:39:33;;;;;;;38.67;18.67;;;5.50;99.90;;;;;;4940457;29;20047;-79
2022/01/24 10:42:28;;;;;;;39.80;18.02;;;5.50;99.90;;;;;;4956487;29;20039;-79
2022/01/24 10:45:00;;;;;;;39.53;18.27;;;5.50;99.90;;;;;;4955750;29;20039;-79
2022/01/24 10:47:32;;;;;;;36.55;17.98;;;5.50;99.90;;;;;;4956262;29;20390;-79
2022/01/24 10:50:00;;;;;;;34.58;18.65;;;5.50;99.90;;;;;;4955566;29;20090;-79
2022/01/24 10:52:33;;;;;;;32.08;16.75;;;5.50;99.90;;;;;;4956125;29;20102;-79
2022/01/24 10:55:18;;;;;;;33.33;17.38;;;5.60;99.90;;;;;;4954398;29;20035;-79
2022/01/24 10:57:47;;;;;;;35.05;17.08;;;5.50;99.90;;;;;;4954335;29;20043;-79
2022/01/24 11:00:17;;;;;;;41.03;17.65;;;5.60;99.90;;;;;;4953931;29;20058;-79
2022/01/24 11:02:44;;;;;;;35.63;17.60;;;5.60;99.90;;;;;;4954033;28;20105;-79
2022/01/24 11:05:15;;;;;;;33.85;17.67;;;5.50;99.90;;;;;;4957588;28;20126;-82
2022/01/24 11:07:53;;;;;;;36.28;19.25;;;5.50;99.90;;;;;;4955095;29;20039;-83
2022/01/24 11:10:20;;;;;;;34.25;17.10;;;5.50;99.90;;;;;;4954562;29;20058;-84
2022/01/24 11:12:45;;;;;;;32.45;16.75;;;5.60;99.90;;;;;;4939379;29;20525;-83
2022/01/24 11:15:11;;;;;;;32.78;16.83;;;5.60;99.90;;;;;;4954445;29;20047;-82
2022/01/24 11:17:37;;;;;;;33.50;16.35;;;5.50;99.90;;;;;;4955035;29;20104;-84
2022/01/24 11:20:04;;;;;;;31.92;17.75;;;5.60;99.90;;;;;;4957000;29;20090;-82
2022/01/24 11:22:32;;;;;;;32.90;16.02;;;5.60;99.90;;;;;;4955464;29;20047;-83
2022/01/24 11:25:02;;;;;;;29.13;16.02;;;5.50;99.90;;;;;;4955507;29;20490;-83
2022/01/24 11:27:29;;;;;;;35.53;17.08;;;5.50;99.90;;;;;;4958077;28;20043;-82
2022/01/24 11:29:57;;;;;;;32.92;16.92;;;5.60;99.90;;;;;;4941581;29;20051;-83
2022/01/24 11:32:27;;;;;;;29.48;15.55;;;5.60;99.90;;;;;;4955782;29;20043;-82
2022/01/24 11:34:54;;;;;;;37.85;18.05;;;5.60;99.90;;;;;;4957177;29;20039;-82
2022/01/24 11:37:40;;;;;;;33.15;16.98;;;5.60;99.90;;;;;;4957556;29;20043;-82
2022/01/24 11:40:13;;;;;;;33.35;18.15;;;5.60;99.90;;;;;;4957286;29;20043;-83
2022/01/24 11:42:42;;;;;;;32.50;17.58;;;5.60;99.90;;;;;;4957286;29;20078;-82
2022/01/24 11:45:13;;;;;;;32.10;17.13;;;5.60;99.90;;;;;;4957142;29;20047;-83
2022/01/24 11:47:41;;;;;;;31.73;16.23;;;5.60;99.90;;;;;;4957327;29;20043;-82
2022/01/24 11:50:31;;;;;;;30.30;17.83;;;5.50;99.90;;;;;;4956793;29;20047;-83
2022/01/24 11:52:57;;;;;;;30.48;16.70;;;5.60;99.90;;;;;;4955045;29;20118;-80
2022/01/24 11:55:36;;;;;;;26.75;16.30;;;5.50;99.90;;;;;;4953201;29;20051;-80
2022/01/24 11:58:05;;;;;;;25.38;16.05;;;5.50;99.90;;;;;;4953140;29;20051;-80
2022/01/24 12:00:38;;;;;;;27.77;16.48;;;5.50;99.90;;;;;;4953377;29;20036;-80
2022/01/24 12:03:26;;;;;;;30.70;17.05;;;5.50;99.90;;;;;;4952934;29;20050;-80
2022/01/24 12:05:56;;;;;;;34.08;17.65;;;5.50;99.90;;;;;;4936754;29;20035;-80
2022/01/24 12:08:41;;;;;;;28.13;15.52;;;5.50;99.90;;;;;;4952875;29;20043;-81
2022/01/24 12:11:29;;;;;;;27.20;17.02;;;5.50;99.90;;;;;;4952880;29;20039;-80
2022/01/24 12:14:01;;;;;;;31.75;17.33;;;5.40;99.90;;;;;;4953561;28;20043;-80
2022/01/24 12:16:34;;;;;;;;;;;5.40;99.90;;;;;;4958242;28;20042;-80
2022/01/24 12:19:02;;;;;;;28.23;16.80;;;5.30;99.90;;;;;;4973182;28;20321;-79
2022/01/24 12:21:29;;;;;;;36.70;17.75;;;5.30;99.90;;;;;;4956759;29;20058;-80
2022/01/24 12:24:00;;;;;;;34.53;16.10;;;5.30;99.90;;;;;;4956732;29;20047;-79
2022/01/24 12:26:32;;;;;;;30.35;15.02;;;5.30;99.90;;;;;;4956241;29;20417;-80
2022/01/24 12:29:04;;;;;;;23.98;12.93;;;5.30;99.90;;;;;;4956671;29;20074;-80
2022/01/24 12:31:34;;;;;;;27.23;13.95;;;5.30;99.90;;;;;;4956603;29;20054;-80
2022/01/24 12:34:38;;;;;;;22.65;14.25;;;5.30;99.90;;;;;;4956410;29;20043;-80
2022/01/24 12:37:11;;;;;;;22.75;13.68;;;5.40;99.90;;;;;;4957184;28;20066;-78
2022/01/24 12:39:57;;;;;;;;;;;5.40;99.90;;;;;;4956477;29;20047;-79
2022/01/24 12:42:39;;;;;;;20.17;12.27;;;5.40;99.90;;;;;;4949405;28;19922;-79
2022/01/24 12:48:15;;;;;;;24.80;14.20;;;5.50;99.90;;;;;;4957242;28;20062;-79
2022/01/24 12:50:54;;;;;;;22.40;14.25;;;5.60;99.90;;;;;;4955828;29;20048;-79
2022/01/24 12:53:21;;;;;;;20.98;13.00;;;5.60;99.90;;;;;;4955912;29;20126;-79
2022/01/24 12:55:58;;;;;;;22.40;14.57;;;5.60;99.90;;;;;;4955662;29;20107;-79
2022/01/24 12:58:34;;;;;;;23.75;14.65;;;5.60;99.90;;;;;;4955649;29;20082;-79
2022/01/24 13:01:00;;;;;;;23.15;13.38;;;5.60;99.90;;;;;;4955986;29;20047;-79
2022/01/24 13:03:25;;;;;;;23.48;13.07;;;5.60;99.90;;;;;;4955672;29;20485;-78
2022/01/24 13:05:51;;;;;;;23.48;14.60;;;5.60;99.90;;;;;;4955410;29;20043;-79
2022/01/24 13:08:17;;;;;;;29.02;14.55;;;5.60;99.90;;;;;;4955568;29;20047;-79
2022/01/24 13:10:47;;;;;;;24.58;14.32;;;5.60;99.90;;;;;;4955425;29;20047;-78
2022/01/24 13:13:14;;;;;;;23.23;12.20;;;5.70;99.90;;;;;;4955537;29;20043;-79
2022/01/24 13:21:33;;;;;;;23.42;14.68;;;5.60;99.90;;;;;;4956542;28;20126;-79
2022/01/24 13:24:00;;;;;;;27.40;14.82;;;5.60;99.90;;;;;;4955110;29;20051;-79
2022/01/24 13:26:26;;;;;;;22.58;13.80;;;5.60;99.90;;;;;;4954633;28;20051;-79
2022/01/24 13:29:01;;;;;;;21.92;14.13;;;5.60;99.90;;;;;;4955243;29;20043;-79
2022/01/24 13:31:27;;;;;;;23.27;13.68;;;5.50;99.90;;;;;;4955174;29;20462;-79
2022/01/24 13:33:52;;;;;;;24.60;13.95;;;5.60;99.90;;;;;;4955139;29;20126;-80
2022/01/24 13:36:19;;;;;;;23.63;14.30;;;5.50;99.90;;;;;;4954944;29;20122;-78
2022/01/24 13:38:48;;;;;;;24.88;13.60;;;5.50;99.90;;;;;;4955348;29;20047;-79
2022/01/24 13:41:20;;;;;;;26.95;14.60;;;5.50;99.90;;;;;;4954847;29;20090;-79
2022/01/24 13:43:45;;;;;;;25.17;14.68;;;5.50;99.90;;;;;;4955245;29;20562;-79
2022/01/24 13:46:22;;;;;;;22.80;14.60;;;5.50;99.90;;;;;;4954644;29;20123;-79
2022/01/24 13:48:49;;;;;;;26.42;16.35;;;5.50;99.90;;;;;;4954876;29;20506;-79
2022/01/24 13:51:20;;;;;;;26.13;15.40;;;5.50;99.90;;;;;;4954748;29;20055;-79
2022/01/24 13:53:53;;;;;;;36.33;16.63;;;5.50;99.90;;;;;;4954886;29;20054;-79
2022/01/24 13:56:44;;;;;;;27.88;14.02;;;5.40;99.90;;;;;;4954798;29;20279;-78
2022/01/24 13:59:26;;;;;;;22.23;14.43;;;5.50;99.90;;;;;;4951664;29;20058;-78
2022/01/24 14:02:01;;;;;;;27.52;14.30;;;5.40;99.90;;;;;;4957646;29;20122;-78
2022/01/24 14:04:28;;;;;;;28.73;15.43;;;5.40;99.90;;;;;;4957484;29;20051;-78
2022/01/24 14:07:07;;;;;;;23.65;13.90;;;5.50;99.90;;;;;;4956963;29;20042;-78
2022/01/24 14:09:34;;;;;;;26.33;14.98;;;5.40;99.90;;;;;;4956791;29;20082;-78
2022/01/24 14:12:00;;;;;;;27.42;15.70;;;5.40;99.90;;;;;;4958442;28;20043;-78
2022/01/24 14:14:37;;;;;;;23.67;14.27;;;5.40;99.90;;;;;;4957080;29;20070;-78
2022/01/24 14:18:06;;;;;;;30.60;15.82;;;5.30;99.90;;;;;;4956326;29;20086;-78
2022/01/24 14:19:55;;;;;;;28.10;15.35;;;5.30;99.90;;;;;;4949614;29;20058;-78
2022/01/24 14:22:21;;;;;;;29.08;17.05;;;5.30;99.90;;;;;;4956796;29;20046;-78
2022/01/24 14:24:55;;;;;;;30.13;16.50;;;5.30;99.90;;;;;;4955693;29;20562;-78
2022/01/24 14:27:43;;;;;;;27.23;15.48;;;5.30;99.90;;;;;;4956426;29;20070;-78
2022/01/24 14:30:11;;;;;;;28.33;16.45;;;5.30;99.90;;;;;;4955974;29;20090;-78
2022/01/24 14:32:45;;;;;;;32.53;15.85;;;5.30;99.90;;;;;;4957011;29;20051;-78
2022/01/24 14:35:11;;;;;;;26.65;15.45;;;5.40;99.90;;;;;;4957751;28;20047;-78
2022/01/24 14:37:51;;;;;;;32.38;16.33;;;5.30;99.90;;;;;;4955766;28;20174;-78
2022/01/24 14:40:45;;;;;;;29.17;16.00;;;5.30;99.90;;;;;;4956448;29;20447;-78
2022/01/24 14:45:59;;;;;;;30.50;16.02;;;5.30;99.90;;;;;;4956134;29;20055;-78
2022/01/24 14:48:25;;;;;;;31.08;16.83;;;5.20;99.90;;;;;;4956366;29;20047;-78